sensor_id;sensor_type;location;lat;lon;timestamp;P1;P4;P2;P0;N10;N4;N25;N1;N05;TS
42106;SPS30;27764;50.278;19.032;2023-03-26T00:02:25;3;;3;;;;;;;
42106;SPS30;27764;50.278;19.032;2023-03-26T00:05:42;3;;3;;;;;;;
42106;SPS30;27764;50.278;19.032;2023-03-26T00:09:00;3;;3;;;;;;;
42106;SPS30;27764;50.278;19.032;2023-03-26T00:12:13;3;;3;;;;;;;
42106;SPS30;27764;50.278;19.032;2023-03-26T00:16:04;3;;3;;;;;;;
42106;SPS30;27764;50.278;19.032;2023-03-26T00:19:19;3;;3;;;;;;;
42106;SPS30;27764;50.278;19.032;2023-03-26T00:22:34;3;;3;;;;;;;
42106;SPS30;27764;50.278;19.032;2023-03-26T00:25:48;3;;3;;;;;;;
42106;SPS30;27764;50.278;19.032;2023-03-26T00:29:03;3;;3;;;;;;;
42106;SPS30;27764;50.278;19.032;2023-03-26T04:32:53;2;;2;;;;;;;
42106;SPS30;27764;50.278;19.032;2023-03-26T04:36:13;2;;2;;;;;;;
42106;SPS30;27764;50.278;19.032;2023-03-26T04:39:29;2;;2;;;;;;;
42106;SPS30;27764;50.278;19.032;2023-03-26T04:42:48;3;;3;;;;;;;
42106;SPS30;27764;50.278;19.032;2023-03-26T04:46:02;2;;2;;;;;;;
42106;SPS30;27764;50.278;19.032;2023-03-26T04:49:58;2;;2;;;;;;;
42106;SPS30;27764;50.278;19.032;2023-03-26T04:53:16;2;;2;;;;;;;
42106;SPS30;27764;50.278;19.032;2023-03-26T04:59:58;2;;2;;;;;;;
42106;SPS30;27764;50.278;19.032;2023-03-26T05:03:13;2;;2;;;;;;;
42106;SPS30;27764;50.278;19.032;2023-03-26T05:07:08;2;;2;;;;;;;
42106;SPS30;27764;50.278;19.032;2023-03-26T05:10:23;2;;2;;;;;;;
42106;SPS30;27764;50.278;19.032;2023-03-26T05:13:37;2;;2;;;;;;;
42106;SPS30;27764;50.278;19.032;2023-03-26T05:16:51;2;;2;;;;;;;
42106;SPS30;27764;50.278;19.032;2023-03-26T05:20:06;2;;2;;;;;;;
42106;SPS30;27764;50.278;19.032;2023-03-26T05:23:58;2;;2;;;;;;;
42106;SPS30;27764;50.278;19.032;2023-03-26T05:27:14;2;;2;;;;;;;
42106;SPS30;27764;50.278;19.032;2023-03-26T05:30:35;2;;2;;;;;;;
42106;SPS30;27764;50.278;19.032;2023-03-26T05:35:28;3;;3;;;;;;;
42106;SPS30;27764;50.278;19.032;2023-03-26T05:38:42;2;;2;;;;;;;
42106;SPS30;27764;50.278;19.032;2023-03-26T05:42:02;3;;3;;;;;;;
42106;SPS30;27764;50.278;19.032;2023-03-26T05:45:16;3;;3;;;;;;;
42106;SPS30;27764;50.278;19.032;2023-03-26T05:49:12;2;;2;;;;;;;
42106;SPS30;27764;50.278;19.032;2023-03-26T05:52:26;2;;2;;;;;;;
42106;SPS30;27764;50.278;19.032;2023-03-26T05:55:40;2;;2;;;;;;;
42106;SPS30;27764;50.278;19.032;2023-03-26T05:58:57;3;;3;;;;;;;
42106;SPS30;27764;50.278;19.032;2023-03-26T06:02:11;2;;2;;;;;;;
42106;SPS30;27764;50.278;19.032;2023-03-26T06:09:28;2;;2;;;;;;;
42106;SPS30;27764;50.278;19.032;2023-03-26T06:12:42;2;;2;;;;;;;
42106;SPS30;27764;50.278;19.032;2023-03-26T06:15:55;2;;2;;;;;;;
42106;SPS30;27764;50.278;19.032;2023-03-26T06:19:55;2;;2;;;;;;;
42106;SPS30;27764;50.278;19.032;2023-03-26T06:23:08;3;;3;;;;;;;
42106;SPS30;27764;50.278;19.032;2023-03-26T06:26:22;2;;2;;;;;;;
42106;SPS30;27764;50.278;19.032;2023-03-26T06:29:36;3;;3;;;;;;;
42106;SPS30;27764;50.278;19.032;2023-03-26T06:32:50;3;;3;;;;;;;
42106;SPS30;27764;50.278;19.032;2023-03-26T06:36:49;2;;2;;;;;;;
42106;SPS30;27764;50.278;19.032;2023-03-26T06:40:05;2;;2;;;;;;;
42106;SPS30;27764;50.278;19.032;2023-03-26T06:43:20;2;;2;;;;;;;
42106;SPS30;27764;50.278;19.032;2023-03-26T06:46:34;2;;2;;;;;;;
42106;SPS30;27764;50.278;19.032;2023-03-26T06:49:51;2;;2;;;;;;;
42106;SPS30;27764;50.278;19.032;2023-03-26T06:53:39;3;;3;;;;;;;
42106;SPS30;27764;50.278;19.032;2023-03-26T06:56:53;2;;2;;;;;;;
42106;SPS30;27764;50.278;19.032;2023-03-26T07:00:08;2;;2;;;;;;;
42106;SPS30;27764;50.278;19.032;2023-03-26T07:03:24;2;;2;;;;;;;
42106;SPS30;27764;50.278;19.032;2023-03-26T07:06:38;2;;2;;;;;;;
42106;SPS30;27764;50.278;19.032;2023-03-26T07:10:24;2;;2;;;;;;;
42106;SPS30;27764;50.278;19.032;2023-03-26T07:13:38;2;;2;;;;;;;
42106;SPS30;27764;50.278;19.032;2023-03-26T07:16:52;2;;2;;;;;;;
42106;SPS30;27764;50.278;19.032;2023-03-26T07:20:08;2;;2;;;;;;;
42106;SPS30;27764;50.278;19.032;2023-03-26T07:23:23;2;;2;;;;;;;
42106;SPS30;27764;50.278;19.032;2023-03-26T07:34:14;2;;2;;;;;;;
42106;SPS30;27764;50.278;19.032;2023-03-26T07:41:51;2;;2;;;;;;;
42106;SPS30;27764;50.278;19.032;2023-03-26T07:45:16;2;;2;;;;;;;
42106;SPS30;27764;50.278;19.032;2023-03-26T07:52:34;2;;2;;;;;;;
42106;SPS30;27764;50.278;19.032;2023-03-26T07:55:49;2;;2;;;;;;;
42106;SPS30;27764;50.278;19.032;2023-03-26T08:06:37;2;;2;;;;;;;
42106;SPS30;27764;50.278;19.032;2023-03-26T08:13:21;2;;2;;;;;;;
42106;SPS30;27764;50.278;19.032;2023-03-26T08:16:45;2;;2;;;;;;;
42106;SPS30;27764;50.278;19.032;2023-03-26T08:20:46;2;;2;;;;;;;
42106;SPS30;27764;50.278;19.032;2023-03-26T08:27:48;2;;2;;;;;;;
42106;SPS30;27764;50.278;19.032;2023-03-26T08:30:52;2;;2;;;;;;;
42106;SPS30;27764;50.278;19.032;2023-03-26T08:34:40;2;;2;;;;;;;
42106;SPS30;27764;50.278;19.032;2023-03-26T08:37:54;2;;2;;;;;;;
42106;SPS30;27764;50.278;19.032;2023-03-26T09:06:23;2;;2;;;;;;;
42106;SPS30;27764;50.278;19.032;2023-03-26T09:38:40;1;;1;;;;;;;
42106;SPS30;27764;50.278;19.032;2023-03-26T10:07:11;2;;2;;;;;;;
42106;SPS30;27764;50.278;19.032;2023-03-26T10:25:28;2;;2;;;;;;;
42106;SPS30;27764;50.278;19.032;2023-03-26T10:32:21;2;;2;;;;;;;
42106;SPS30;27764;50.278;19.032;2023-03-26T10:39:54;2;;2;;;;;;;
42106;SPS30;27764;50.278;19.032;2023-03-26T10:57:40;2;;2;;;;;;;
42106;SPS30;27764;50.278;19.032;2023-03-26T11:01:21;2;;2;;;;;;;
42106;SPS30;27764;50.278;19.032;2023-03-26T11:19:26;1;;1;;;;;;;
42106;SPS30;27764;50.278;19.032;2023-03-26T11:26:15;1;;1;;;;;;;
42106;SPS30;27764;50.278;19.032;2023-03-26T11:33:36;2;;2;;;;;;;
42106;SPS30;27764;50.278;19.032;2023-03-26T11:36:56;2;;2;;;;;;;
42106;SPS30;27764;50.278;19.032;2023-03-26T11:40:22;2;;2;;;;;;;
42106;SPS30;27764;50.278;19.032;2023-03-26T11:43:36;1;;1;;;;;;;
42106;SPS30;27764;50.278;19.032;2023-03-26T11:54:16;2;;2;;;;;;;
42106;SPS30;27764;50.278;19.032;2023-03-26T11:57:30;2;;2;;;;;;;
42106;SPS30;27764;50.278;19.032;2023-03-26T12:01:27;2;;2;;;;;;;
42106;SPS30;27764;50.278;19.032;2023-03-26T12:04:50;2;;2;;;;;;;
42106;SPS30;27764;50.278;19.032;2023-03-26T12:11:33;2;;2;;;;;;;
42106;SPS30;27764;50.278;19.032;2023-03-26T12:15:20;3;;3;;;;;;;
42106;SPS30;27764;50.278;19.032;2023-03-26T12:18:34;2;;2;;;;;;;
42106;SPS30;27764;50.278;19.032;2023-03-26T12:21:51;2;;2;;;;;;;
42106;SPS30;27764;50.278;19.032;2023-03-26T12:28:32;2;;2;;;;;;;
42106;SPS30;27764;50.278;19.032;2023-03-26T12:32:22;1;;1;;;;;;;
42106;SPS30;27764;50.278;19.032;2023-03-26T12:35:38;1;;1;;;;;;;
42106;SPS30;27764;50.278;19.032;2023-03-26T12:38:53;2;;2;;;;;;;
42106;SPS30;27764;50.278;19.032;2023-03-26T12:49:36;1;;1;;;;;;;
42106;SPS30;27764;50.278;19.032;2023-03-26T12:56:25;1;;1;;;;;;;
42106;SPS30;27764;50.278;19.032;2023-03-26T13:36:15;2;;2;;;;;;;
42106;SPS30;27764;50.278;19.032;2023-03-26T13:43:42;1;;1;;;;;;;
42106;SPS30;27764;50.278;19.032;2023-03-26T13:47:13;1;;1;;;;;;;
42106;SPS30;27764;50.278;19.032;2023-03-26T13:50:34;1;;1;;;;;;;
42106;SPS30;27764;50.278;19.032;2023-03-26T13:54:42;2;;2;;;;;;;
42106;SPS30;27764;50.278;19.032;2023-03-26T13:58:05;1;;1;;;;;;;
42106;SPS30;27764;50.278;19.032;2023-03-26T14:01:33;1;;1;;;;;;;
42106;SPS30;27764;50.278;19.032;2023-03-26T14:04:56;1;;1;;;;;;;
42106;SPS30;27764;50.278;19.032;2023-03-26T14:08:50;2;;2;;;;;;;
42106;SPS30;27764;50.278;19.032;2023-03-26T14:15:45;2;;2;;;;;;;
42106;SPS30;27764;50.278;19.032;2023-03-26T14:29:53;2;;2;;;;;;;
42106;SPS30;27764;50.278;19.032;2023-03-26T14:34:15;2;;2;;;;;;;
42106;SPS30;27764;50.278;19.032;2023-03-26T14:41:08;2;;2;;;;;;;
42106;SPS30;27764;50.278;19.032;2023-03-26T14:44:35;1;;1;;;;;;;
42106;SPS30;27764;50.278;19.032;2023-03-26T14:58:52;2;;2;;;;;;;
42106;SPS30;27764;50.278;19.032;2023-03-26T15:24:16;2;;2;;;;;;;
42106;SPS30;27764;50.278;19.032;2023-03-26T15:32:18;3;;3;;;;;;;
42106;SPS30;27764;50.278;19.032;2023-03-26T15:38:30;3;;3;;;;;;;
42106;SPS30;27764;50.278;19.032;2023-03-26T15:42:30;3;;3;;;;;;;
42106;SPS30;27764;50.278;19.032;2023-03-26T15:52:49;2;;2;;;;;;;
42106;SPS30;27764;50.278;19.032;2023-03-26T15:56:52;2;;2;;;;;;;
42106;SPS30;27764;50.278;19.032;2023-03-26T16:03:38;2;;2;;;;;;;
42106;SPS30;27764;50.278;19.032;2023-03-26T16:11:04;2;;2;;;;;;;
42106;SPS30;27764;50.278;19.032;2023-03-26T16:32:16;1;;1;;;;;;;
42106;SPS30;27764;50.278;19.032;2023-03-26T16:39:47;2;;2;;;;;;;
42106;SPS30;27764;50.278;19.032;2023-03-26T16:46:27;1;;1;;;;;;;
42106;SPS30;27764;50.278;19.032;2023-03-26T16:57:26;2;;2;;;;;;;
42106;SPS30;27764;50.278;19.032;2023-03-26T17:00:46;2;;2;;;;;;;
42106;SPS30;27764;50.278;19.032;2023-03-26T17:04:35;2;;2;;;;;;;
42106;SPS30;27764;50.278;19.032;2023-03-26T17:07:57;2;;1;;;;;;;
42106;SPS30;27764;50.278;19.032;2023-03-26T17:15:01;1;;1;;;;;;;
42106;SPS30;27764;50.278;19.032;2023-03-26T17:18:51;2;;2;;;;;;;
42106;SPS30;27764;50.278;19.032;2023-03-26T17:36:53;2;;2;;;;;;;
42106;SPS30;27764;50.278;19.032;2023-03-26T17:47:38;3;;3;;;;;;;
42106;SPS30;27764;50.278;19.032;2023-03-26T17:50:59;3;;3;;;;;;;
42106;SPS30;27764;50.278;19.032;2023-03-26T18:01:58;4;;4;;;;;;;
42106;SPS30;27764;50.278;19.032;2023-03-26T18:05:11;4;;4;;;;;;;
42106;SPS30;27764;50.278;19.032;2023-03-26T18:15:59;4;;4;;;;;;;
42106;SPS30;27764;50.278;19.032;2023-03-26T18:19:21;4;;4;;;;;;;
42106;SPS30;27764;50.278;19.032;2023-03-26T18:22:37;5;;5;;;;;;;
42106;SPS30;27764;50.278;19.032;2023-03-26T18:26:48;4;;4;;;;;;;
42106;SPS30;27764;50.278;19.032;2023-03-26T18:30:13;6;;6;;;;;;;
42106;SPS30;27764;50.278;19.032;2023-03-26T18:36:59;5;;5;;;;;;;
42106;SPS30;27764;50.278;19.032;2023-03-26T18:41:05;6;;6;;;;;;;
42106;SPS30;27764;50.278;19.032;2023-03-26T18:44:25;6;;6;;;;;;;
42106;SPS30;27764;50.278;19.032;2023-03-26T18:47:40;6;;6;;;;;;;
42106;SPS30;27764;50.278;19.032;2023-03-26T18:50:58;6;;6;;;;;;;
42106;SPS30;27764;50.278;19.032;2023-03-26T18:54:15;5;;5;;;;;;;
42106;SPS30;27764;50.278;19.032;2023-03-26T19:01:37;6;;6;;;;;;;
42106;SPS30;27764;50.278;19.032;2023-03-26T19:04:51;6;;6;;;;;;;
42106;SPS30;27764;50.278;19.032;2023-03-26T19:08:06;4;;4;;;;;;;
42106;SPS30;27764;50.278;19.032;2023-03-26T19:15:23;3;;3;;;;;;;
42106;SPS30;27764;50.278;19.032;2023-03-26T19:18:39;4;;4;;;;;;;
42106;SPS30;27764;50.278;19.032;2023-03-26T19:21:54;3;;3;;;;;;;
42106;SPS30;27764;50.278;19.032;2023-03-26T19:25:53;4;;4;;;;;;;
42106;SPS30;27764;50.278;19.032;2023-03-26T19:29:11;3;;3;;;;;;;
42106;SPS30;27764;50.278;19.032;2023-03-26T19:32:31;3;;3;;;;;;;
42106;SPS30;27764;50.278;19.032;2023-03-26T19:35:50;2;;2;;;;;;;
42106;SPS30;27764;50.278;19.032;2023-03-26T19:39:45;3;;3;;;;;;;
42106;SPS30;27764;50.278;19.032;2023-03-26T19:43:04;3;;3;;;;;;;
42106;SPS30;27764;50.278;19.032;2023-03-26T19:46:21;3;;3;;;;;;;
42106;SPS30;27764;50.278;19.032;2023-03-26T19:53:34;3;;3;;;;;;;
42106;SPS30;27764;50.278;19.032;2023-03-26T19:56:49;4;;4;;;;;;;
42106;SPS30;27764;50.278;19.032;2023-03-26T20:00:04;4;;4;;;;;;;
42106;SPS30;27764;50.278;19.032;2023-03-26T20:03:29;4;;4;;;;;;;
42106;SPS30;27764;50.278;19.032;2023-03-26T20:07:27;4;;4;;;;;;;
42106;SPS30;27764;50.278;19.032;2023-03-26T20:10:41;4;;4;;;;;;;
42106;SPS30;27764;50.278;19.032;2023-03-26T20:13:55;3;;3;;;;;;;
42106;SPS30;27764;50.278;19.032;2023-03-26T20:17:13;2;;2;;;;;;;
42106;SPS30;27764;50.278;19.032;2023-03-26T20:20:29;3;;3;;;;;;;
42106;SPS30;27764;50.278;19.032;2023-03-26T20:24:15;4;;4;;;;;;;
42106;SPS30;27764;50.278;19.032;2023-03-26T20:27:30;4;;4;;;;;;;
42106;SPS30;27764;50.278;19.032;2023-03-26T20:30:47;4;;4;;;;;;;
42106;SPS30;27764;50.278;19.032;2023-03-26T20:34:03;4;;4;;;;;;;
42106;SPS30;27764;50.278;19.032;2023-03-26T20:37:19;3;;3;;;;;;;
42106;SPS30;27764;50.278;19.032;2023-03-26T20:41:08;3;;3;;;;;;;
42106;SPS30;27764;50.278;19.032;2023-03-26T20:44:29;4;;4;;;;;;;
42106;SPS30;27764;50.278;19.032;2023-03-26T20:47:44;3;;3;;;;;;;
42106;SPS30;27764;50.278;19.032;2023-03-26T20:50:58;4;;4;;;;;;;
42106;SPS30;27764;50.278;19.032;2023-03-26T20:54:15;3;;3;;;;;;;
42106;SPS30;27764;50.278;19.032;2023-03-26T20:58:04;4;;4;;;;;;;
42106;SPS30;27764;50.278;19.032;2023-03-26T21:01:17;4;;4;;;;;;;
42106;SPS30;27764;50.278;19.032;2023-03-26T21:04:33;5;;5;;;;;;;
42106;SPS30;27764;50.278;19.032;2023-03-26T21:07:47;4;;4;;;;;;;
42106;SPS30;27764;50.278;19.032;2023-03-26T21:11:01;5;;5;;;;;;;
42106;SPS30;27764;50.278;19.032;2023-03-26T21:14:55;4;;4;;;;;;;
42106;SPS30;27764;50.278;19.032;2023-03-26T21:18:09;4;;4;;;;;;;
42106;SPS30;27764;50.278;19.032;2023-03-26T21:21:27;4;;4;;;;;;;
42106;SPS30;27764;50.278;19.032;2023-03-26T21:28:53;5;;5;;;;;;;
42106;SPS30;27764;50.278;19.032;2023-03-26T21:32:10;4;;4;;;;;;;
42106;SPS30;27764;50.278;19.032;2023-03-26T21:35:26;4;;4;;;;;;;
42106;SPS30;27764;50.278;19.032;2023-03-26T21:38:41;5;;5;;;;;;;
42106;SPS30;27764;50.278;19.032;2023-03-26T21:42:48;4;;4;;;;;;;
42106;SPS30;27764;50.278;19.032;2023-03-26T21:46:03;4;;4;;;;;;;
42106;SPS30;27764;50.278;19.032;2023-03-26T21:49:18;4;;4;;;;;;;
42106;SPS30;27764;50.278;19.032;2023-03-26T21:52:33;4;;4;;;;;;;
42106;SPS30;27764;50.278;19.032;2023-03-26T22:06:55;4;;4;;;;;;;
42106;SPS30;27764;50.278;19.032;2023-03-26T22:10:13;4;;4;;;;;;;
42106;SPS30;27764;50.278;19.032;2023-03-26T22:14:04;4;;4;;;;;;;
42106;SPS30;27764;50.278;19.032;2023-03-26T22:17:18;9;;9;;;;;;;
42106;SPS30;27764;50.278;19.032;2023-03-26T22:20:32;6;;6;;;;;;;
42106;SPS30;27764;50.278;19.032;2023-03-26T22:23:46;5;;5;;;;;;;
42106;SPS30;27764;50.278;19.032;2023-03-26T22:27:04;5;;5;;;;;;;
42106;SPS30;27764;50.278;19.032;2023-03-26T22:30:53;5;;5;;;;;;;
42106;SPS30;27764;50.278;19.032;2023-03-26T22:34:07;6;;6;;;;;;;
42106;SPS30;27764;50.278;19.032;2023-03-26T22:37:21;7;;7;;;;;;;
42106;SPS30;27764;50.278;19.032;2023-03-26T22:40:37;7;;7;;;;;;;
42106;SPS30;27764;50.278;19.032;2023-03-26T22:43:54;8;;8;;;;;;;
42106;SPS30;27764;50.278;19.032;2023-03-26T22:47:45;6;;6;;;;;;;
42106;SPS30;27764;50.278;19.032;2023-03-26T22:51:01;7;;7;;;;;;;
42106;SPS30;27764;50.278;19.032;2023-03-26T22:54:16;7;;7;;;;;;;
42106;SPS30;27764;50.278;19.032;2023-03-26T22:57:30;8;;8;;;;;;;
42106;SPS30;27764;50.278;19.032;2023-03-26T23:00:44;10;;9;;;;;;;
42106;SPS30;27764;50.278;19.032;2023-03-26T23:04:38;10;;10;;;;;;;
42106;SPS30;27764;50.278;19.032;2023-03-26T23:07:54;11;;11;;;;;;;
42106;SPS30;27764;50.278;19.032;2023-03-26T23:11:13;10;;10;;;;;;;
42106;SPS30;27764;50.278;19.032;2023-03-26T23:14:29;10;;10;;;;;;;
42106;SPS30;27764;50.278;19.032;2023-03-26T23:17:48;10;;10;;;;;;;
42106;SPS30;27764;50.278;19.032;2023-03-26T23:21:35;8;;8;;;;;;;
42106;SPS30;27764;50.278;19.032;2023-03-26T23:24:49;9;;9;;;;;;;
42106;SPS30;27764;50.278;19.032;2023-03-26T23:28:03;7;;7;;;;;;;
